createdAt,value
2023-03-26T00:00:13.484Z,25.60
2023-03-26T00:00:43.583Z,25.56
2023-03-26T00:01:13.569Z,25.57
2023-03-26T00:01:43.713Z,25.56
2023-03-26T00:02:13.783Z,25.61
2023-03-26T00:02:43.813Z,25.60
2023-03-26T00:03:13.839Z,25.60
2023-03-26T00:03:43.872Z,25.58
2023-03-26T00:04:13.832Z,25.60
2023-03-26T00:04:43.950Z,25.58
2023-03-26T00:05:13.959Z,25.58
2023-03-26T00:05:45.542Z,25.58
2023-03-26T00:06:14.118Z,25.56
2023-03-26T00:06:44.148Z,25.56
2023-03-26T00:07:14.167Z,25.56
2023-03-26T00:07:44.199Z,25.57
2023-03-26T00:08:14.229Z,25.58
2023-03-26T00:08:44.278Z,25.58
2023-03-26T00:09:14.304Z,25.57
2023-03-26T00:09:44.340Z,25.56
2023-03-26T00:10:14.407Z,25.57
2023-03-26T00:10:44.412Z,25.56
2023-03-26T00:11:14.442Z,25.56
2023-03-26T00:11:44.467Z,25.56
2023-03-26T00:12:14.498Z,25.57
2023-03-26T00:12:44.531Z,25.54
2023-03-26T00:13:14.559Z,25.53
2023-03-26T00:13:44.607Z,25.54
2023-03-26T00:14:14.632Z,25.57
2023-03-26T00:14:44.663Z,25.56
2023-03-26T00:15:14.695Z,25.54
2023-03-26T00:15:44.725Z,25.54
2023-03-26T00:16:14.786Z,25.56
2023-03-26T00:16:44.854Z,25.58
2023-03-26T00:17:14.896Z,25.56
2023-03-26T00:17:44.960Z,25.54
2023-03-26T00:18:15.009Z,25.56
2023-03-26T00:18:45.049Z,25.57
2023-03-26T00:19:15.108Z,25.54
2023-03-26T00:19:45.126Z,25.57
2023-03-26T00:20:15.154Z,25.54
2023-03-26T00:20:45.189Z,25.57
2023-03-26T00:21:15.224Z,25.54
2023-03-26T00:21:45.247Z,25.54
2023-03-26T00:22:15.274Z,25.54
2023-03-26T00:22:45.316Z,25.54
2023-03-26T00:23:15.351Z,25.54
2023-03-26T00:23:45.386Z,25.54
2023-03-26T00:24:15.605Z,25.54
2023-03-26T00:24:45.490Z,25.54
2023-03-26T00:25:15.520Z,25.54
2023-03-26T00:25:45.549Z,25.54
2023-03-26T00:26:15.599Z,25.54
2023-03-26T00:26:45.611Z,25.56
2023-03-26T00:27:15.650Z,25.54
2023-03-26T00:27:45.703Z,25.56
2023-03-26T00:28:15.706Z,25.54
2023-03-26T00:28:45.739Z,25.56
2023-03-26T00:29:15.773Z,25.53
2023-03-26T00:29:45.806Z,25.54
2023-03-26T00:30:15.848Z,25.54
2023-03-26T00:30:45.959Z,25.54
2023-03-26T00:31:16.010Z,25.54
2023-03-26T00:31:46.419Z,25.56
2023-03-26T00:32:16.113Z,25.56
2023-03-26T00:32:53.512Z,25.53
2023-03-26T00:33:16.215Z,25.56
2023-03-26T00:33:46.234Z,25.54
2023-03-26T00:34:16.265Z,25.53
2023-03-26T00:34:46.322Z,25.53
2023-03-26T00:35:16.358Z,25.53
2023-03-26T00:35:46.413Z,25.53
2023-03-26T00:36:16.485Z,25.53
2023-03-26T00:36:46.518Z,25.53
2023-03-26T00:37:16.558Z,25.54
2023-03-26T00:37:46.585Z,25.54
2023-03-26T00:38:16.639Z,25.54
2023-03-26T00:38:46.659Z,25.53
2023-03-26T00:39:16.699Z,25.53
2023-03-26T00:39:46.715Z,25.51
2023-03-26T00:40:16.755Z,25.53
2023-03-26T00:40:46.777Z,25.51
2023-03-26T00:41:16.810Z,25.51
2023-03-26T00:41:46.852Z,25.51
2023-03-26T00:42:16.891Z,25.50
2023-03-26T00:42:46.914Z,25.51
2023-03-26T00:43:16.949Z,25.53
2023-03-26T00:43:46.999Z,25.53
2023-03-26T00:44:17.032Z,25.54
2023-03-26T00:44:47.061Z,25.51
2023-03-26T00:45:17.112Z,25.54
2023-03-26T00:45:47.169Z,25.51
2023-03-26T00:46:17.483Z,25.51
2023-03-26T00:46:47.323Z,25.53
2023-03-26T00:47:17.345Z,25.51
2023-03-26T00:47:47.404Z,25.53
2023-03-26T00:48:17.452Z,25.53
2023-03-26T00:48:47.497Z,25.48
2023-03-26T00:49:17.519Z,25.51
2023-03-26T00:49:47.600Z,25.51
2023-03-26T00:50:17.604Z,25.48
2023-03-26T00:50:47.635Z,25.50
2023-03-26T00:51:17.671Z,25.50
2023-03-26T00:51:47.718Z,25.48
2023-03-26T00:52:17.746Z,25.53
2023-03-26T00:52:47.789Z,25.53
2023-03-26T00:53:17.816Z,25.48
2023-03-26T00:53:47.848Z,25.50
2023-03-26T00:54:17.886Z,25.47
2023-03-26T00:54:47.912Z,25.51
2023-03-26T00:55:17.908Z,25.51
2023-03-26T00:56:18.004Z,25.48
2023-03-26T00:56:48.111Z,25.48
2023-03-26T00:57:28.911Z,25.50
2023-03-26T00:57:48.123Z,25.48
2023-03-26T00:58:18.133Z,25.48
2023-03-26T00:58:48.276Z,25.48
2023-03-26T00:59:18.255Z,25.48
2023-03-26T00:59:48.372Z,25.47
2023-03-26T01:00:18.496Z,25.47
2023-03-26T01:00:48.488Z,25.48
2023-03-26T01:01:48.593Z,25.47
2023-03-26T01:02:18.591Z,25.48
2023-03-26T01:02:48.688Z,25.48
2023-03-26T01:03:27.441Z,25.48
2023-03-26T01:04:04.918Z,25.50
2023-03-26T01:04:18.844Z,25.48
2023-03-26T01:04:48.865Z,25.47
2023-03-26T01:05:18.939Z,25.48
2023-03-26T01:05:48.950Z,25.48
2023-03-26T01:06:18.977Z,25.47
2023-03-26T01:06:49.013Z,25.47
2023-03-26T01:07:19.052Z,25.48
2023-03-26T01:07:49.085Z,25.47
2023-03-26T01:08:19.125Z,25.47
2023-03-26T01:08:49.150Z,25.47
2023-03-26T01:09:19.183Z,25.50
2023-03-26T01:09:49.211Z,25.50
2023-03-26T01:10:19.248Z,25.47
2023-03-26T01:10:49.285Z,25.50
2023-03-26T01:11:19.310Z,25.47
2023-03-26T01:11:49.351Z,25.48
2023-03-26T01:12:19.385Z,25.50
2023-03-26T01:12:49.412Z,25.47
2023-03-26T01:13:19.452Z,25.48
2023-03-26T01:13:49.499Z,25.47
2023-03-26T01:14:19.528Z,25.50
2023-03-26T01:14:50.996Z,25.50
2023-03-26T01:15:19.621Z,25.47
2023-03-26T01:15:49.679Z,25.47
2023-03-26T01:16:19.789Z,25.47
2023-03-26T01:16:49.865Z,25.50
2023-03-26T01:17:19.902Z,25.48
2023-03-26T01:17:49.955Z,25.47
2023-03-26T01:18:20.002Z,25.47
2023-03-26T01:18:50.029Z,25.48
2023-03-26T01:19:20.050Z,25.47
2023-03-26T01:19:50.087Z,25.48
2023-03-26T01:20:20.129Z,25.48
2023-03-26T01:20:50.177Z,25.47
2023-03-26T01:21:20.182Z,25.48
2023-03-26T01:21:50.221Z,25.47
2023-03-26T01:22:20.308Z,25.48
2023-03-26T01:22:50.346Z,25.47
2023-03-26T01:23:20.380Z,25.44
2023-03-26T01:23:50.425Z,25.47
2023-03-26T01:24:20.455Z,25.48
2023-03-26T01:24:50.503Z,25.47
2023-03-26T01:25:20.526Z,25.47
2023-03-26T01:25:50.562Z,25.47
2023-03-26T01:26:20.602Z,25.48
2023-03-26T01:26:50.625Z,25.47
2023-03-26T01:27:20.659Z,25.47
2023-03-26T01:27:50.695Z,25.45
2023-03-26T01:28:20.722Z,25.44
2023-03-26T01:28:50.781Z,25.44
2023-03-26T01:29:20.825Z,25.45
2023-03-26T01:29:50.853Z,25.47
2023-03-26T01:30:20.897Z,25.45
2023-03-26T01:30:50.924Z,25.48
2023-03-26T01:31:20.958Z,25.47
2023-03-26T01:31:51.001Z,25.45
2023-03-26T01:32:21.099Z,25.45
2023-03-26T01:32:51.215Z,25.47
2023-03-26T01:33:21.225Z,25.45
2023-03-26T01:33:51.267Z,25.44
2023-03-26T01:34:21.292Z,25.44
2023-03-26T01:34:51.324Z,25.44
2023-03-26T01:35:21.408Z,25.45
2023-03-26T01:35:51.477Z,25.44
2023-03-26T01:36:21.520Z,25.45
2023-03-26T01:36:51.513Z,25.44
2023-03-26T01:37:21.560Z,25.44
2023-03-26T01:37:51.581Z,25.44
2023-03-26T01:38:21.623Z,25.43
2023-03-26T01:38:51.649Z,25.45
2023-03-26T01:39:21.685Z,25.44
2023-03-26T01:39:51.717Z,25.43
2023-03-26T01:40:21.747Z,25.47
2023-03-26T01:40:51.797Z,25.45
2023-03-26T01:41:21.825Z,25.44
2023-03-26T01:41:51.873Z,25.44
2023-03-26T01:42:21.894Z,25.43
2023-03-26T01:42:51.928Z,25.43
2023-03-26T01:43:21.954Z,25.41
2023-03-26T01:43:51.992Z,25.44
2023-03-26T01:44:22.033Z,25.43
2023-03-26T01:44:52.063Z,25.44
2023-03-26T01:45:22.096Z,25.43
2023-03-26T01:45:52.371Z,25.45
2023-03-26T01:46:22.253Z,25.44
2023-03-26T01:46:52.426Z,25.43
2023-03-26T01:47:22.434Z,25.44
2023-03-26T01:47:52.568Z,25.44
2023-03-26T01:48:22.487Z,25.43
2023-03-26T01:48:52.518Z,25.43
2023-03-26T01:49:22.564Z,25.43
2023-03-26T01:49:52.594Z,25.41
2023-03-26T01:50:22.626Z,25.43
2023-03-26T01:50:52.658Z,25.43
2023-03-26T01:51:22.689Z,25.41
2023-03-26T01:51:52.753Z,25.43
2023-03-26T01:52:22.759Z,25.43
2023-03-26T01:52:52.797Z,25.43
2023-03-26T01:53:22.822Z,25.43
2023-03-26T01:53:52.854Z,25.43
2023-03-26T01:54:22.887Z,25.41
2023-03-26T01:54:52.920Z,25.41
2023-03-26T01:55:23.039Z,25.41
2023-03-26T01:55:53.412Z,25.43
2023-03-26T01:56:23.241Z,25.43
2023-03-26T01:56:53.294Z,25.43
2023-03-26T01:57:23.277Z,25.41
2023-03-26T01:57:53.399Z,25.44
2023-03-26T01:58:23.511Z,25.43
2023-03-26T01:58:53.529Z,25.43
2023-03-26T01:59:23.522Z,25.41
2023-03-26T02:00:23.601Z,25.43
2023-03-26T02:00:53.720Z,25.44
2023-03-26T02:01:23.872Z,25.44
2023-03-26T02:01:53.948Z,25.45
2023-03-26T02:02:24.000Z,25.43
2023-03-26T02:02:54.061Z,25.40
2023-03-26T02:03:24.042Z,25.41
2023-03-26T02:03:53.975Z,25.41
2023-03-26T02:04:24.087Z,25.40
2023-03-26T02:04:54.083Z,25.41
2023-03-26T02:05:24.119Z,25.40
2023-03-26T02:05:54.342Z,25.41
2023-03-26T02:06:24.254Z,25.41
2023-03-26T02:06:54.285Z,25.41
2023-03-26T02:07:24.350Z,25.40
2023-03-26T02:07:54.344Z,25.41
2023-03-26T02:08:24.403Z,25.40
2023-03-26T02:08:54.434Z,25.41
2023-03-26T02:09:24.464Z,25.40
2023-03-26T02:09:54.500Z,25.40
2023-03-26T02:10:24.543Z,25.38
2023-03-26T02:10:54.570Z,25.40
2023-03-26T02:11:33.573Z,25.40
2023-03-26T02:11:54.659Z,25.37
2023-03-26T02:12:24.686Z,25.40
2023-03-26T02:12:54.726Z,25.40
2023-03-26T02:13:24.771Z,25.38
2023-03-26T02:13:54.788Z,25.40
2023-03-26T02:14:24.819Z,25.40
2023-03-26T02:14:54.886Z,25.40
2023-03-26T02:15:24.910Z,25.37
2023-03-26T02:15:55.145Z,25.38
2023-03-26T02:16:25.111Z,25.38
2023-03-26T02:16:55.153Z,25.37
2023-03-26T02:17:25.220Z,25.40
2023-03-26T02:17:55.302Z,25.38
2023-03-26T02:18:25.276Z,25.37
2023-03-26T02:18:55.304Z,25.40
2023-03-26T02:19:25.348Z,25.37
2023-03-26T02:19:55.379Z,25.38
2023-03-26T02:20:25.408Z,25.37
2023-03-26T02:20:55.438Z,25.38
2023-03-26T02:21:25.470Z,25.40
2023-03-26T02:21:55.498Z,25.38
2023-03-26T02:22:25.532Z,25.38
2023-03-26T02:22:55.589Z,25.40
2023-03-26T02:23:25.598Z,25.38
2023-03-26T02:23:55.631Z,25.38
2023-03-26T02:24:25.681Z,25.40
2023-03-26T02:24:55.703Z,25.37
2023-03-26T02:25:25.731Z,25.38
2023-03-26T02:25:56.003Z,25.38
2023-03-26T02:26:25.874Z,25.37
2023-03-26T02:26:55.892Z,25.38
2023-03-26T02:27:25.936Z,25.38
2023-03-26T02:27:55.966Z,25.40
2023-03-26T02:28:25.993Z,25.38
2023-03-26T02:28:56.043Z,25.38
2023-03-26T02:29:26.070Z,25.36
2023-03-26T02:29:56.105Z,25.40
2023-03-26T02:30:26.138Z,25.37
2023-03-26T02:30:56.167Z,25.38
2023-03-26T02:31:26.406Z,25.38
2023-03-26T02:31:56.280Z,25.37
2023-03-26T02:32:28.767Z,25.38
2023-03-26T02:32:56.488Z,25.36
2023-03-26T02:33:26.417Z,25.37
2023-03-26T02:33:56.456Z,25.38
2023-03-26T02:34:26.489Z,25.38
2023-03-26T02:34:56.516Z,25.37
2023-03-26T02:35:26.637Z,25.37
2023-03-26T02:35:56.824Z,25.37
2023-03-26T02:36:26.741Z,25.36
2023-03-26T02:36:56.671Z,25.37
2023-03-26T02:37:26.705Z,25.34
2023-03-26T02:37:56.742Z,25.37
2023-03-26T02:38:26.799Z,25.36
2023-03-26T02:38:56.826Z,25.36
2023-03-26T02:39:26.857Z,25.36
2023-03-26T02:39:56.885Z,25.37
2023-03-26T02:40:26.919Z,25.37
2023-03-26T02:40:56.970Z,25.38
2023-03-26T02:41:26.978Z,25.36
2023-03-26T02:41:57.016Z,25.36
2023-03-26T02:42:27.048Z,25.36
2023-03-26T02:42:57.089Z,25.36
2023-03-26T02:43:27.111Z,25.38
2023-03-26T02:43:57.160Z,25.36
2023-03-26T02:44:27.185Z,25.37
2023-03-26T02:44:57.207Z,25.36
2023-03-26T02:45:27.264Z,25.36
2023-03-26T02:45:57.637Z,25.36
2023-03-26T02:46:27.418Z,25.34
2023-03-26T02:46:57.445Z,25.36
2023-03-26T02:47:27.495Z,25.36
2023-03-26T02:47:57.535Z,25.37
2023-03-26T02:48:27.564Z,25.34
2023-03-26T02:48:57.602Z,25.34
2023-03-26T02:49:27.640Z,25.34
2023-03-26T02:49:57.673Z,25.34
2023-03-26T02:50:27.703Z,25.36
2023-03-26T02:50:57.730Z,25.34
2023-03-26T02:51:27.764Z,25.36
2023-03-26T02:51:57.794Z,25.34
2023-03-26T02:52:27.821Z,25.33
2023-03-26T02:52:57.854Z,25.33
2023-03-26T02:53:27.885Z,25.34
2023-03-26T02:53:57.946Z,25.36
2023-03-26T02:54:27.960Z,25.34
2023-03-26T02:54:57.982Z,25.34
2023-03-26T02:55:27.981Z,25.34
2023-03-26T02:55:58.094Z,25.33
2023-03-26T02:56:28.234Z,25.34
2023-03-26T02:56:58.283Z,25.37
2023-03-26T02:57:28.285Z,25.33
2023-03-26T02:57:58.401Z,25.36
2023-03-26T02:58:28.400Z,25.33
2023-03-26T02:58:58.516Z,25.33
2023-03-26T02:59:28.651Z,25.34
2023-03-26T02:59:58.645Z,25.36
2023-03-26T03:00:58.752Z,25.36
2023-03-26T03:01:28.751Z,25.36
2023-03-26T03:01:58.762Z,25.34
2023-03-26T03:02:28.869Z,25.36
2023-03-26T03:02:58.884Z,25.36
2023-03-26T03:03:28.863Z,25.33
2023-03-26T03:03:58.857Z,25.36
2023-03-26T03:04:28.994Z,25.34
2023-03-26T03:04:58.993Z,25.32
2023-03-26T03:05:29.032Z,25.36
2023-03-26T03:05:59.053Z,25.32
2023-03-26T03:06:29.085Z,25.33
2023-03-26T03:06:59.130Z,25.33
2023-03-26T03:07:29.185Z,25.32
2023-03-26T03:07:59.191Z,25.33
2023-03-26T03:08:29.250Z,25.33
2023-03-26T03:08:59.284Z,25.33
2023-03-26T03:09:29.376Z,25.33
2023-03-26T03:09:59.369Z,25.33
2023-03-26T03:10:29.405Z,25.33
2023-03-26T03:10:59.442Z,25.34
2023-03-26T03:11:29.472Z,25.34
2023-03-26T03:11:59.505Z,25.32
2023-03-26T03:12:29.558Z,25.33
2023-03-26T03:12:59.562Z,25.32
2023-03-26T03:13:29.593Z,25.33
2023-03-26T03:13:59.629Z,25.34
2023-03-26T03:14:29.671Z,25.32
2023-03-26T03:14:59.704Z,25.33
2023-03-26T03:15:29.729Z,25.30
2023-03-26T03:15:59.758Z,25.34
2023-03-26T03:16:29.819Z,25.32
2023-03-26T03:16:59.912Z,25.33
2023-03-26T03:17:29.944Z,25.32
2023-03-26T03:18:00.012Z,25.33
2023-03-26T03:18:30.068Z,25.32
2023-03-26T03:19:00.143Z,25.32
2023-03-26T03:19:30.171Z,25.33
2023-03-26T03:20:00.189Z,25.32
2023-03-26T03:20:30.250Z,25.33
2023-03-26T03:21:00.266Z,25.32
2023-03-26T03:21:30.294Z,25.32
2023-03-26T03:22:00.328Z,25.32
2023-03-26T03:22:30.359Z,25.32
2023-03-26T03:23:00.401Z,25.32
2023-03-26T03:23:30.418Z,25.32
2023-03-26T03:24:00.695Z,25.30
2023-03-26T03:24:30.504Z,25.30
2023-03-26T03:25:00.567Z,25.32
2023-03-26T03:25:30.569Z,25.30
2023-03-26T03:26:00.599Z,25.29
2023-03-26T03:26:30.656Z,25.30
2023-03-26T03:27:00.676Z,25.29
2023-03-26T03:27:30.701Z,25.30
2023-03-26T03:28:00.733Z,25.30
2023-03-26T03:28:30.796Z,25.32
2023-03-26T03:29:00.818Z,25.30
2023-03-26T03:29:30.872Z,25.30
2023-03-26T03:30:00.898Z,25.30
2023-03-26T03:30:30.923Z,25.32
2023-03-26T03:31:00.995Z,25.30
2023-03-26T03:31:31.048Z,25.29
2023-03-26T03:32:01.083Z,25.27
2023-03-26T03:32:31.146Z,25.27
2023-03-26T03:33:01.169Z,25.29
2023-03-26T03:33:31.211Z,25.26
2023-03-26T03:34:01.240Z,25.30
2023-03-26T03:34:31.283Z,25.29
2023-03-26T03:35:01.318Z,25.29
2023-03-26T03:35:31.369Z,25.26
2023-03-26T03:36:01.431Z,25.29
2023-03-26T03:36:31.471Z,25.27
2023-03-26T03:37:01.500Z,25.27
2023-03-26T03:37:31.528Z,25.27
2023-03-26T03:38:01.568Z,25.26
2023-03-26T03:38:31.611Z,25.27
2023-03-26T03:39:01.643Z,25.26
2023-03-26T03:39:31.683Z,25.27
2023-03-26T03:40:01.738Z,25.26
2023-03-26T03:40:31.786Z,25.27
2023-03-26T03:41:01.793Z,25.29
2023-03-26T03:41:31.837Z,25.27
2023-03-26T03:42:01.862Z,25.27
2023-03-26T03:42:31.886Z,25.27
2023-03-26T03:43:01.923Z,25.27
2023-03-26T03:43:31.953Z,25.24
2023-03-26T03:44:01.984Z,25.26
2023-03-26T03:44:32.019Z,25.29
2023-03-26T03:45:02.061Z,25.27
2023-03-26T03:45:32.086Z,25.26
2023-03-26T03:46:02.147Z,25.24
2023-03-26T03:46:32.269Z,25.27
2023-03-26T03:47:02.296Z,25.27
2023-03-26T03:47:32.358Z,25.26
2023-03-26T03:48:02.416Z,25.27
2023-03-26T03:48:32.371Z,25.27
2023-03-26T03:49:02.402Z,25.23
2023-03-26T03:49:32.434Z,25.26
2023-03-26T03:50:02.473Z,25.27
2023-03-26T03:50:34.395Z,25.24
2023-03-26T03:51:02.556Z,25.26
2023-03-26T03:51:32.588Z,25.24
2023-03-26T03:52:02.626Z,25.24
2023-03-26T03:52:32.659Z,25.27
2023-03-26T03:53:02.683Z,25.24
2023-03-26T03:53:32.714Z,25.26
2023-03-26T03:54:02.746Z,25.26
2023-03-26T03:54:32.775Z,25.26
2023-03-26T03:55:02.808Z,25.26
2023-03-26T03:55:32.794Z,25.27
2023-03-26T03:56:02.937Z,25.24
2023-03-26T03:56:32.943Z,25.27
2023-03-26T03:57:02.952Z,25.24
2023-03-26T03:57:33.060Z,25.26
2023-03-26T03:58:03.055Z,25.24
2023-03-26T03:58:33.061Z,25.26
2023-03-26T03:59:03.057Z,25.24
2023-03-26T04:00:04.531Z,25.26
2023-03-26T04:00:33.200Z,25.24
2023-03-26T04:01:03.314Z,25.26
2023-03-26T04:01:33.305Z,25.26
2023-03-26T04:02:03.419Z,25.24
2023-03-26T04:02:33.497Z,25.23
2023-03-26T04:03:03.579Z,25.24
2023-03-26T04:03:34.543Z,25.24
2023-03-26T04:04:03.723Z,25.22
2023-03-26T04:04:33.800Z,25.23
2023-03-26T04:05:03.793Z,25.26
2023-03-26T04:05:33.819Z,25.26
2023-03-26T04:06:03.853Z,25.24
2023-03-26T04:06:33.887Z,25.26
2023-03-26T04:07:03.928Z,25.26
2023-03-26T04:07:33.951Z,25.23
2023-03-26T04:08:03.988Z,25.27
2023-03-26T04:08:34.042Z,25.24
2023-03-26T04:09:04.073Z,25.27
2023-03-26T04:09:34.106Z,25.26
2023-03-26T04:10:04.151Z,25.26
2023-03-26T04:10:34.174Z,25.24
2023-03-26T04:11:04.215Z,25.22
2023-03-26T04:11:34.270Z,25.23
2023-03-26T04:12:04.272Z,25.22
2023-03-26T04:12:34.305Z,25.22
2023-03-26T04:13:04.332Z,25.22
2023-03-26T04:13:34.365Z,25.23
2023-03-26T04:14:04.409Z,25.20
2023-03-26T04:14:34.426Z,25.19
2023-03-26T04:15:04.514Z,25.22
2023-03-26T04:15:34.526Z,25.20
2023-03-26T04:16:04.605Z,25.20
2023-03-26T04:16:34.747Z,25.22
2023-03-26T04:17:04.689Z,25.20
2023-03-26T04:17:34.748Z,25.20
2023-03-26T04:18:04.780Z,25.20
2023-03-26T04:18:34.834Z,25.23
2023-03-26T04:19:04.859Z,25.20
2023-03-26T04:19:34.884Z,25.22
2023-03-26T04:20:04.926Z,25.23
2023-03-26T04:20:34.962Z,25.22
2023-03-26T04:21:04.988Z,25.22
2023-03-26T04:21:35.015Z,25.23
2023-03-26T04:22:05.048Z,25.22
2023-03-26T04:22:35.112Z,25.23
2023-03-26T04:23:05.133Z,25.22
2023-03-26T04:23:35.171Z,25.20
2023-03-26T04:24:05.216Z,25.19
2023-03-26T04:24:35.225Z,25.23
2023-03-26T04:25:05.352Z,25.22
2023-03-26T04:25:35.291Z,25.20
2023-03-26T04:26:05.351Z,25.19
2023-03-26T04:26:35.361Z,25.22
2023-03-26T04:27:05.412Z,25.22
2023-03-26T04:27:35.434Z,25.23
2023-03-26T04:28:05.447Z,25.19
2023-03-26T04:28:35.519Z,25.20
2023-03-26T04:29:05.550Z,25.19
2023-03-26T04:29:35.572Z,25.19
2023-03-26T04:30:05.606Z,25.19
2023-03-26T04:30:35.637Z,25.19
2023-03-26T04:31:05.731Z,25.20
2023-03-26T04:31:35.784Z,25.19
2023-03-26T04:32:05.804Z,25.23
2023-03-26T04:32:35.845Z,25.20
2023-03-26T04:33:05.896Z,25.22
2023-03-26T04:33:35.967Z,25.17
2023-03-26T04:34:06.018Z,25.17
2023-03-26T04:34:36.025Z,25.17
2023-03-26T04:35:06.060Z,25.19
2023-03-26T04:35:36.133Z,25.16
2023-03-26T04:36:06.229Z,25.17
2023-03-26T04:36:36.265Z,25.20
2023-03-26T04:37:06.297Z,25.19
2023-03-26T04:37:36.328Z,25.17
2023-03-26T04:38:06.380Z,25.17
2023-03-26T04:38:36.432Z,25.17
2023-03-26T04:39:06.465Z,25.20
2023-03-26T04:39:36.494Z,25.19
2023-03-26T04:40:06.525Z,25.17
2023-03-26T04:40:36.551Z,25.19
2023-03-26T04:41:06.580Z,25.20
2023-03-26T04:41:36.613Z,25.19
2023-03-26T04:42:06.644Z,25.19
2023-03-26T04:42:36.723Z,25.19
2023-03-26T04:43:06.731Z,25.17
2023-03-26T04:43:36.796Z,25.20
2023-03-26T04:44:06.825Z,25.17
2023-03-26T04:44:36.847Z,25.17
2023-03-26T04:45:06.881Z,25.20
2023-03-26T04:45:36.918Z,25.16
2023-03-26T04:46:06.947Z,25.19
2023-03-26T04:46:37.061Z,25.19
2023-03-26T04:47:06.978Z,25.19
2023-03-26T04:47:37.224Z,25.16
2023-03-26T04:48:07.160Z,25.17
2023-03-26T04:48:37.186Z,25.16
2023-03-26T04:49:07.227Z,25.17
2023-03-26T04:49:37.244Z,25.16
2023-03-26T04:50:07.274Z,25.17
2023-03-26T04:50:37.312Z,25.17
2023-03-26T04:51:07.340Z,25.16
2023-03-26T04:51:37.367Z,25.16
2023-03-26T04:52:07.411Z,25.15
2023-03-26T04:52:37.429Z,25.16
2023-03-26T04:53:07.465Z,25.19
2023-03-26T04:53:37.498Z,25.17
2023-03-26T04:54:07.524Z,25.16
2023-03-26T04:54:37.556Z,25.17
2023-03-26T04:55:07.569Z,25.15
2023-03-26T04:55:37.687Z,25.16
2023-03-26T04:56:07.799Z,25.19
2023-03-26T04:56:37.988Z,25.17
2023-03-26T04:57:08.066Z,25.17
2023-03-26T04:57:38.056Z,25.13
2023-03-26T04:58:08.196Z,25.16
2023-03-26T04:58:38.290Z,25.17
2023-03-26T04:59:08.404Z,25.15
2023-03-26T04:59:38.530Z,25.16
2023-03-26T05:00:08.528Z,25.16
2023-03-26T05:00:38.639Z,25.16
2023-03-26T05:01:10.298Z,25.15
2023-03-26T05:01:38.715Z,25.15
2023-03-26T05:02:08.705Z,25.15
2023-03-26T05:02:38.829Z,25.13
2023-03-26T05:03:08.979Z,25.13
2023-03-26T05:03:38.989Z,25.15
2023-03-26T05:04:09.021Z,25.13
2023-03-26T05:05:09.089Z,25.13
2023-03-26T05:05:39.130Z,25.15
2023-03-26T05:06:09.148Z,25.15
2023-03-26T05:06:39.194Z,25.15
2023-03-26T05:07:09.215Z,25.16
2023-03-26T05:07:39.244Z,25.15
2023-03-26T05:08:09.270Z,25.15
2023-03-26T05:08:39.307Z,25.15
2023-03-26T05:09:09.341Z,25.16
2023-03-26T05:09:39.374Z,25.16
2023-03-26T05:10:09.404Z,25.13
2023-03-26T05:10:39.482Z,25.16
2023-03-26T05:11:09.501Z,25.13
2023-03-26T05:11:39.536Z,25.13
2023-03-26T05:12:09.567Z,25.13
2023-03-26T05:12:39.591Z,25.13
2023-03-26T05:13:09.648Z,25.16
2023-03-26T05:13:39.651Z,25.13
2023-03-26T05:14:09.685Z,25.13
2023-03-26T05:14:39.712Z,25.15
2023-03-26T05:15:09.739Z,25.16
2023-03-26T05:15:39.776Z,25.16
2023-03-26T05:16:09.841Z,25.12
2023-03-26T05:16:39.927Z,25.13
2023-03-26T05:17:09.968Z,25.12
2023-03-26T05:17:40.066Z,25.13
2023-03-26T05:18:10.165Z,25.16
2023-03-26T05:18:40.307Z,25.13
2023-03-26T05:19:10.201Z,25.12
2023-03-26T05:19:40.228Z,25.15
2023-03-26T05:20:10.262Z,25.12
2023-03-26T05:20:40.298Z,25.13
2023-03-26T05:21:10.327Z,25.10
2023-03-26T05:21:40.370Z,25.13
2023-03-26T05:22:10.404Z,25.12
2023-03-26T05:22:40.434Z,25.12
2023-03-26T05:23:10.469Z,25.13
2023-03-26T05:23:40.607Z,25.12
2023-03-26T05:24:10.626Z,25.12
2023-03-26T05:24:40.683Z,25.12
2023-03-26T05:25:10.689Z,25.10
2023-03-26T05:25:40.725Z,25.09
2023-03-26T05:26:10.752Z,25.12
2023-03-26T05:26:40.790Z,25.10
2023-03-26T05:27:10.813Z,25.12
2023-03-26T05:27:40.844Z,25.10
2023-03-26T05:28:10.879Z,25.09
2023-03-26T05:28:40.936Z,25.10
2023-03-26T05:29:10.939Z,25.12
2023-03-26T05:29:40.982Z,25.10
2023-03-26T05:30:11.007Z,25.13
2023-03-26T05:30:41.039Z,25.09
2023-03-26T05:31:11.080Z,25.10
2023-03-26T05:31:41.098Z,25.10
2023-03-26T05:32:11.131Z,25.12
2023-03-26T05:32:41.200Z,25.09
2023-03-26T05:33:11.214Z,25.10
2023-03-26T05:33:41.302Z,25.10
2023-03-26T05:34:11.373Z,25.10
2023-03-26T05:34:41.401Z,25.12
2023-03-26T05:35:11.431Z,25.07
2023-03-26T05:35:41.511Z,25.07
2023-03-26T05:36:11.554Z,25.12
2023-03-26T05:36:41.588Z,25.10
2023-03-26T05:37:11.623Z,25.10
2023-03-26T05:37:41.656Z,25.09
2023-03-26T05:38:11.688Z,25.10
2023-03-26T05:38:41.721Z,25.10
2023-03-26T05:39:11.744Z,25.10
2023-03-26T05:39:41.780Z,25.10
2023-03-26T05:40:11.825Z,25.12
2023-03-26T05:40:41.866Z,25.09
2023-03-26T05:41:11.911Z,25.09
2023-03-26T05:41:41.924Z,25.10
2023-03-26T05:42:11.948Z,25.07
2023-03-26T05:42:41.988Z,25.13
2023-03-26T05:43:12.019Z,25.09
2023-03-26T05:43:42.080Z,25.12
2023-03-26T05:44:12.125Z,25.10
2023-03-26T05:44:42.125Z,25.09
2023-03-26T05:45:12.169Z,25.12
2023-03-26T05:45:42.240Z,25.12
2023-03-26T05:46:12.314Z,25.12
2023-03-26T05:46:42.357Z,25.10
2023-03-26T05:47:12.377Z,25.10
2023-03-26T05:47:42.478Z,25.12
2023-03-26T05:48:12.405Z,25.12
2023-03-26T05:48:42.451Z,25.10
2023-03-26T05:49:12.475Z,25.12
2023-03-26T05:49:42.508Z,25.10
2023-03-26T05:50:12.544Z,25.07
2023-03-26T05:50:42.565Z,25.09
2023-03-26T05:51:12.597Z,25.10
2023-03-26T05:51:42.629Z,25.10
2023-03-26T05:52:12.658Z,25.09
2023-03-26T05:52:42.691Z,25.09
2023-03-26T05:53:12.722Z,25.09
2023-03-26T05:53:42.770Z,25.06
2023-03-26T05:54:12.793Z,25.09
2023-03-26T05:54:42.826Z,25.07
2023-03-26T05:55:12.826Z,25.06
2023-03-26T05:55:42.943Z,25.07
2023-03-26T05:56:13.056Z,25.09
2023-03-26T05:56:43.210Z,25.06
2023-03-26T05:57:13.293Z,25.07
2023-03-26T05:57:43.284Z,25.09
2023-03-26T05:58:13.284Z,25.07
2023-03-26T05:58:43.438Z,25.07
2023-03-26T05:59:13.422Z,25.06
2023-03-26T05:59:43.454Z,25.06
2023-03-26T06:00:13.430Z,25.10
2023-03-26T06:00:43.557Z,25.07
2023-03-26T06:01:13.548Z,25.09
2023-03-26T06:01:43.670Z,25.09
2023-03-26T06:02:13.794Z,25.10
2023-03-26T06:02:43.828Z,25.07
2023-03-26T06:03:14.020Z,25.06
2023-03-26T06:03:43.865Z,25.06
2023-03-26T06:04:14.013Z,25.07
2023-03-26T06:04:44.065Z,25.07
2023-03-26T06:05:14.041Z,25.06
2023-03-26T06:05:44.128Z,25.06
2023-03-26T06:06:14.164Z,25.06
2023-03-26T06:06:44.189Z,25.09
2023-03-26T06:07:14.218Z,25.09
2023-03-26T06:07:44.250Z,25.07
2023-03-26T06:08:14.285Z,25.05
2023-03-26T06:08:44.311Z,25.06
2023-03-26T06:09:14.338Z,25.07
2023-03-26T06:09:44.381Z,25.07
2023-03-26T06:10:18.095Z,25.06
2023-03-26T06:10:44.448Z,25.05
2023-03-26T06:11:14.482Z,25.05
2023-03-26T06:11:44.510Z,25.07
2023-03-26T06:12:14.541Z,25.06
2023-03-26T06:12:44.572Z,25.06
2023-03-26T06:13:14.602Z,25.07
2023-03-26T06:13:44.633Z,25.07
2023-03-26T06:14:14.662Z,25.07
2023-03-26T06:14:44.688Z,25.05
2023-03-26T06:15:14.753Z,25.06
2023-03-26T06:15:44.805Z,25.06
2023-03-26T06:16:26.185Z,25.05
2023-03-26T06:16:44.884Z,25.05
2023-03-26T06:17:14.926Z,25.05
2023-03-26T06:17:44.968Z,25.05
2023-03-26T06:18:15.024Z,25.05
2023-03-26T06:18:45.062Z,25.06
2023-03-26T06:19:15.115Z,25.06
2023-03-26T06:19:45.167Z,25.07
2023-03-26T06:20:15.185Z,25.05
2023-03-26T06:20:45.224Z,25.09
2023-03-26T06:21:15.259Z,25.07
2023-03-26T06:21:45.287Z,25.05
2023-03-26T06:22:15.318Z,25.05
2023-03-26T06:22:45.347Z,25.05
2023-03-26T06:23:15.371Z,25.05
2023-03-26T06:23:45.423Z,25.06
2023-03-26T06:24:15.461Z,25.07
2023-03-26T06:24:45.493Z,25.06
2023-03-26T06:25:15.519Z,25.06
2023-03-26T06:25:45.577Z,25.07
2023-03-26T06:26:15.596Z,25.06
2023-03-26T06:26:45.634Z,25.07
2023-03-26T06:27:15.661Z,25.06
2023-03-26T06:27:45.687Z,25.03
2023-03-26T06:28:15.718Z,25.06
2023-03-26T06:28:45.773Z,25.05
2023-03-26T06:29:15.795Z,25.05
2023-03-26T06:29:45.831Z,25.06